RJTH(METAR)
03/29 09:00
RJTH 290000Z 21018KT 8000 FEW007 SCT015 OVC050 20/19 Q1010 RMK
A2985=
戻る
トップページへ戻る
IMOC Co,.Ltd.